createdAt,value
2022-10-04T00:00:16.703Z,11.2
2022-10-04T00:01:22.907Z,11.2
2022-10-04T00:02:29.100Z,11.2
2022-10-04T00:03:35.318Z,11.1
2022-10-04T00:04:41.525Z,11.1
2022-10-04T00:05:47.693Z,11.2
2022-10-04T00:06:53.902Z,11.2
2022-10-04T00:08:00.129Z,11.1
2022-10-04T00:09:06.296Z,11
2022-10-04T00:10:12.505Z,11
2022-10-04T00:11:18.760Z,11.1
2022-10-04T00:12:24.918Z,11
2022-10-04T00:13:31.088Z,11
2022-10-04T00:14:37.297Z,10.9
2022-10-04T00:15:43.486Z,10.9
2022-10-04T00:16:49.715Z,10.9
2022-10-04T00:17:55.901Z,11
2022-10-04T00:19:02.099Z,11
2022-10-04T00:20:08.341Z,11
2022-10-04T00:21:14.545Z,11.1
2022-10-04T00:22:20.754Z,11.1
2022-10-04T00:23:26.904Z,11
2022-10-04T00:24:33.149Z,11
2022-10-04T00:25:39.311Z,11
2022-10-04T00:26:45.528Z,11.1
2022-10-04T00:27:51.735Z,11.1
2022-10-04T00:28:57.937Z,11.2
2022-10-04T00:30:04.141Z,11.2
2022-10-04T00:31:10.344Z,11.2
2022-10-04T00:32:16.551Z,11.2
2022-10-04T00:33:22.838Z,11.1
2022-10-04T00:34:28.118Z,11.1
2022-10-04T00:35:34.321Z,11.1
2022-10-04T00:36:40.529Z,11
2022-10-04T00:37:46.729Z,11
2022-10-04T00:38:52.926Z,11
2022-10-04T00:39:59.136Z,11.1
2022-10-04T00:41:05.356Z,11
2022-10-04T00:42:11.545Z,11.1
2022-10-04T00:43:17.766Z,11.1
2022-10-04T00:44:23.961Z,11.1
2022-10-04T00:45:30.163Z,11.1
2022-10-04T00:46:36.373Z,11
2022-10-04T00:47:42.643Z,11
2022-10-04T00:48:48.820Z,11
2022-10-04T00:49:55.013Z,11
2022-10-04T00:51:01.219Z,11
2022-10-04T00:52:07.447Z,11
2022-10-04T00:53:13.646Z,11
2022-10-04T00:54:19.866Z,11
2022-10-04T00:55:26.076Z,11.1
2022-10-04T00:56:32.313Z,11.1
2022-10-04T00:57:38.490Z,11.2
2022-10-04T00:58:44.705Z,11.2
2022-10-04T00:59:50.921Z,11.2
2022-10-04T01:00:57.127Z,11.2
2022-10-04T01:02:03.416Z,11.3
2022-10-04T01:03:08.727Z,11.3
2022-10-04T01:04:14.906Z,11.3
2022-10-04T01:05:21.119Z,11.3
2022-10-04T01:06:27.330Z,11.3
2022-10-04T01:07:33.554Z,11.3
2022-10-04T01:08:39.819Z,11.3
2022-10-04T01:09:46.049Z,11.4
2022-10-04T01:10:52.189Z,11.4
2022-10-04T01:11:58.376Z,11.5
2022-10-04T01:13:04.581Z,11.5
2022-10-04T01:14:10.792Z,11.5
2022-10-04T01:15:17.060Z,11.6
2022-10-04T01:16:23.243Z,11.7
2022-10-04T01:17:29.412Z,11.6
2022-10-04T01:18:35.620Z,11.6
2022-10-04T01:19:41.853Z,11.6
2022-10-04T01:20:48.038Z,11.6
2022-10-04T01:21:54.242Z,11.6
2022-10-04T01:23:00.453Z,11.6
2022-10-04T01:24:06.663Z,11.5
2022-10-04T01:25:12.863Z,11.5
2022-10-04T01:26:19.067Z,11.5
2022-10-04T01:27:25.274Z,11.5
2022-10-04T01:28:31.484Z,11.5
2022-10-04T01:29:37.721Z,11.6
2022-10-04T01:30:43.970Z,11.6
2022-10-04T01:31:49.261Z,11.5
2022-10-04T01:32:55.511Z,11.5
2022-10-04T01:34:01.659Z,11.6
2022-10-04T01:35:07.865Z,11.6
2022-10-04T01:36:14.117Z,11.6
2022-10-04T01:37:20.278Z,11.6
2022-10-04T01:38:26.488Z,11.6
2022-10-04T01:39:32.689Z,11.6
2022-10-04T01:40:38.956Z,11.6
2022-10-04T01:41:45.126Z,11.6
2022-10-04T01:42:51.332Z,11.5
2022-10-04T01:43:57.540Z,11.5
2022-10-04T01:45:03.756Z,11.4
2022-10-04T01:46:09.945Z,11.4
2022-10-04T01:47:16.152Z,11.4
2022-10-04T01:48:22.354Z,11.3
2022-10-04T01:49:28.599Z,11.3
2022-10-04T01:50:34.792Z,11.3
2022-10-04T01:51:41.023Z,11.3
2022-10-04T01:52:47.210Z,11.3
2022-10-04T01:53:53.417Z,11.3
2022-10-04T01:54:59.625Z,11.2
2022-10-04T01:56:05.833Z,11.2
2022-10-04T01:57:12.038Z,11.2
2022-10-04T01:58:18.233Z,11.1
2022-10-04T01:59:24.527Z,11.1
2022-10-04T02:00:29.803Z,11
2022-10-04T02:01:36.009Z,11
2022-10-04T02:02:42.227Z,11
2022-10-04T02:03:48.429Z,11
2022-10-04T02:04:54.639Z,11
2022-10-04T02:06:00.836Z,10.9
2022-10-04T02:07:07.047Z,10.9
2022-10-04T02:08:13.248Z,10.9
2022-10-04T02:09:19.457Z,10.8
2022-10-04T02:10:25.664Z,10.7
2022-10-04T02:11:31.876Z,10.8
2022-10-04T02:12:38.081Z,10.7
2022-10-04T02:13:44.288Z,10.8
2022-10-04T02:14:50.509Z,10.7
2022-10-04T02:15:56.712Z,10.6
2022-10-04T02:17:02.918Z,10.5
2022-10-04T02:18:09.131Z,10.4
2022-10-04T02:19:15.335Z,10.4
2022-10-04T02:20:21.548Z,10.3
2022-10-04T02:21:27.765Z,10.3
2022-10-04T02:22:33.980Z,10.2
2022-10-04T02:23:40.196Z,10.1
2022-10-04T02:24:46.410Z,10
2022-10-04T02:25:52.615Z,9.9
2022-10-04T02:26:58.827Z,9.8
2022-10-04T02:28:05.112Z,9.8
2022-10-04T02:29:10.409Z,9.7
2022-10-04T02:30:16.646Z,9.7
2022-10-04T02:31:22.833Z,9.7
2022-10-04T02:32:29.031Z,9.6
2022-10-04T02:33:35.337Z,9.6
2022-10-04T02:34:41.458Z,9.7
2022-10-04T02:35:47.697Z,9.7
2022-10-04T02:36:53.899Z,9.6
2022-10-04T02:38:00.112Z,9.6
2022-10-04T02:39:06.330Z,9.5
2022-10-04T02:40:12.564Z,9.5
2022-10-04T02:41:18.760Z,9.5
2022-10-04T02:42:24.964Z,9.4
2022-10-04T02:43:31.210Z,9.3
2022-10-04T02:44:37.416Z,9.3
2022-10-04T02:45:43.622Z,9.4
2022-10-04T02:46:49.841Z,9.5
2022-10-04T02:47:56.100Z,9.5
2022-10-04T02:49:02.276Z,9.4
2022-10-04T02:50:08.497Z,9.4
2022-10-04T02:51:14.733Z,9.5
2022-10-04T02:52:20.954Z,9.3
2022-10-04T02:53:27.245Z,9.2
2022-10-04T02:54:33.408Z,9.2
2022-10-04T02:55:39.617Z,9.1
2022-10-04T02:56:45.938Z,9.1
2022-10-04T02:57:51.206Z,9.1
2022-10-04T02:58:57.437Z,9.1
2022-10-04T03:00:03.737Z,9.1
2022-10-04T03:01:09.879Z,9
2022-10-04T03:02:16.100Z,9
2022-10-04T03:03:22.336Z,8.9
2022-10-04T03:04:28.540Z,8.9
2022-10-04T03:05:34.762Z,8.9
2022-10-04T03:06:40.987Z,8.9
2022-10-04T03:07:47.232Z,8.8
2022-10-04T03:08:53.428Z,8.8
2022-10-04T03:09:59.649Z,8.8
2022-10-04T03:11:05.885Z,8.7
2022-10-04T03:12:12.157Z,8.7
2022-10-04T03:13:18.334Z,8.6
2022-10-04T03:14:24.688Z,8.7
2022-10-04T03:15:30.781Z,8.6
2022-10-04T03:16:37.119Z,8.6
2022-10-04T03:17:43.239Z,8.5
2022-10-04T03:18:49.473Z,8.4
2022-10-04T03:19:55.727Z,8.4
2022-10-04T03:21:01.907Z,8.4
2022-10-04T03:22:08.136Z,8.4
2022-10-04T03:23:14.366Z,8.4
2022-10-04T03:24:20.619Z,8.5
2022-10-04T03:25:26.904Z,8.5
2022-10-04T03:26:33.209Z,8.4
2022-10-04T03:27:38.510Z,8.4
2022-10-04T03:28:44.742Z,8.4
2022-10-04T03:29:50.975Z,8.3
2022-10-04T03:30:57.203Z,8.2
2022-10-04T03:32:03.451Z,8.1
2022-10-04T03:33:09.671Z,8
2022-10-04T03:34:15.894Z,8
2022-10-04T03:35:22.122Z,8
2022-10-04T03:36:28.400Z,8.1
2022-10-04T03:37:34.599Z,8.1
2022-10-04T03:38:40.845Z,8.1
2022-10-04T03:39:47.073Z,8.1
2022-10-04T03:40:53.326Z,8.1
2022-10-04T03:41:59.557Z,8.1
2022-10-04T03:43:05.784Z,8
2022-10-04T03:44:12.034Z,8
2022-10-04T03:45:18.267Z,8
2022-10-04T03:46:24.515Z,7.9
2022-10-04T03:47:30.753Z,7.8
2022-10-04T03:48:36.999Z,7.9
2022-10-04T03:49:43.230Z,7.9
2022-10-04T03:50:49.460Z,7.9
2022-10-04T03:51:55.698Z,7.9
2022-10-04T03:53:01.945Z,7.8
2022-10-04T03:54:08.177Z,7.7
2022-10-04T03:55:14.488Z,7.7
2022-10-04T03:56:20.813Z,7.6
2022-10-04T03:57:27.128Z,7.5
2022-10-04T03:58:33.448Z,7.4
2022-10-04T03:59:39.763Z,7.3
2022-10-04T04:00:46.077Z,7.3
2022-10-04T04:01:52.410Z,7.4
2022-10-04T04:02:58.735Z,7.4
2022-10-04T04:04:05.056Z,7.6
2022-10-04T04:05:11.381Z,7.7
2022-10-04T04:06:17.707Z,7.7
2022-10-04T04:07:24.043Z,7.8
2022-10-04T04:08:30.355Z,7.7
2022-10-04T04:09:36.828Z,7.8
2022-10-04T04:10:42.195Z,7.8
2022-10-04T04:11:48.448Z,7.8
2022-10-04T04:12:54.969Z,7.8
2022-10-04T04:14:00.946Z,7.8
2022-10-04T04:15:07.193Z,7.7
2022-10-04T04:16:13.466Z,7.7
2022-10-04T04:17:19.693Z,7.7
2022-10-04T04:18:25.950Z,7.7
2022-10-04T04:19:32.187Z,7.8
2022-10-04T04:20:38.447Z,7.8
2022-10-04T04:21:44.668Z,7.8
2022-10-04T04:22:50.913Z,7.7
2022-10-04T04:23:57.162Z,7.7
2022-10-04T04:25:03.408Z,7.7
2022-10-04T04:26:09.652Z,7.7
2022-10-04T04:27:15.899Z,7.7
2022-10-04T04:28:22.157Z,7.6
2022-10-04T04:29:28.404Z,7.6
2022-10-04T04:30:34.665Z,7.6
2022-10-04T04:31:40.916Z,7.6
2022-10-04T04:32:47.192Z,7.5
2022-10-04T04:33:53.426Z,7.6
2022-10-04T04:34:59.681Z,7.6
2022-10-04T04:36:05.931Z,7.6
2022-10-04T04:37:12.188Z,7.6
2022-10-04T04:38:18.511Z,7.6
2022-10-04T04:39:24.868Z,7.6
2022-10-04T04:40:31.231Z,7.6
2022-10-04T04:41:37.594Z,7.6
2022-10-04T04:42:43.837Z,7.6
2022-10-04T04:43:50.214Z,7.6
2022-10-04T04:44:56.488Z,7.6
2022-10-04T04:46:02.812Z,7.6
2022-10-04T04:47:09.136Z,7.5
2022-10-04T04:48:15.467Z,7.5
2022-10-04T04:49:21.790Z,7.4
2022-10-04T04:50:28.113Z,7.4
2022-10-04T04:51:34.445Z,7.4
2022-10-04T04:52:40.889Z,7.5
2022-10-04T04:53:46.273Z,7.6
2022-10-04T04:54:52.524Z,7.5
2022-10-04T04:55:58.764Z,7.5
2022-10-04T04:57:05.005Z,7.4
2022-10-04T04:58:11.275Z,7.5
2022-10-04T04:59:17.496Z,7.7
2022-10-04T05:00:23.734Z,7.8
2022-10-04T05:01:29.986Z,7.8
2022-10-04T05:02:36.227Z,7.7
2022-10-04T05:03:42.471Z,7.6
2022-10-04T05:04:48.727Z,7.6
2022-10-04T05:05:54.974Z,7.6
2022-10-04T05:07:01.235Z,7.6
2022-10-04T05:08:07.474Z,7.6
2022-10-04T05:09:13.726Z,7.6
2022-10-04T05:10:19.982Z,7.6
2022-10-04T05:11:26.233Z,7.7
2022-10-04T05:12:32.490Z,7.7
2022-10-04T05:13:38.742Z,7.7
2022-10-04T05:14:45.002Z,7.7
2022-10-04T05:15:51.237Z,7.7
2022-10-04T05:16:57.491Z,7.7
2022-10-04T05:18:03.733Z,7.7
2022-10-04T05:19:10.015Z,7.7
2022-10-04T05:20:16.244Z,7.7
2022-10-04T05:21:22.566Z,7.7
2022-10-04T05:22:28.907Z,7.7
2022-10-04T05:23:35.237Z,7.7
2022-10-04T05:24:41.563Z,7.7
2022-10-04T05:25:47.872Z,7.7
2022-10-04T05:26:54.194Z,7.8
2022-10-04T05:28:00.524Z,7.8
2022-10-04T05:29:06.852Z,7.8
2022-10-04T05:30:13.176Z,7.9
2022-10-04T05:31:19.499Z,7.9
2022-10-04T05:32:25.827Z,7.9
2022-10-04T05:33:32.188Z,8
2022-10-04T05:34:38.466Z,8
2022-10-04T05:35:44.900Z,8.1
2022-10-04T05:36:50.277Z,8.1
2022-10-04T05:37:56.526Z,8
2022-10-04T05:39:02.760Z,8
2022-10-04T05:40:09.088Z,8
2022-10-04T05:41:15.280Z,8
2022-10-04T05:42:21.493Z,8
2022-10-04T05:43:27.746Z,8.1
2022-10-04T05:44:34.088Z,8.1
2022-10-04T05:45:40.240Z,8.1
2022-10-04T05:46:46.466Z,8.2
2022-10-04T05:47:52.716Z,8.2
2022-10-04T05:48:58.950Z,8.3
2022-10-04T05:50:05.197Z,8.5
2022-10-04T05:51:11.441Z,8.6
2022-10-04T05:52:17.669Z,8.7
2022-10-04T05:53:23.909Z,8.9
2022-10-04T05:54:30.145Z,9.1
2022-10-04T05:55:36.374Z,9.3
2022-10-04T05:56:42.605Z,10
2022-10-04T05:57:48.880Z,10.7
2022-10-04T05:58:55.058Z,10.8
2022-10-04T06:00:01.299Z,10.4
2022-10-04T06:01:07.521Z,10.1
2022-10-04T06:02:13.742Z,9.9
2022-10-04T06:03:20.031Z,9.8
2022-10-04T06:04:26.280Z,9.6
2022-10-04T06:05:31.619Z,9.9
2022-10-04T06:06:37.794Z,10.7
2022-10-04T06:07:44.018Z,11.7
2022-10-04T06:08:50.220Z,12.4
2022-10-04T06:09:56.433Z,12.5
2022-10-04T06:11:02.629Z,12.1
2022-10-04T06:12:08.861Z,11.4
2022-10-04T06:13:15.038Z,11.2
2022-10-04T06:14:21.252Z,11.1
2022-10-04T06:15:27.420Z,10.9
2022-10-04T06:16:32.640Z,11
2022-10-04T06:17:37.844Z,10.9
2022-10-04T06:18:44.037Z,10.8
2022-10-04T06:19:49.257Z,10.6
2022-10-04T06:20:55.735Z,10.4
2022-10-04T06:22:01.709Z,10.4
2022-10-04T06:23:06.913Z,10.3
2022-10-04T06:24:13.060Z,10.3
2022-10-04T06:25:19.301Z,10.3
2022-10-04T06:26:25.585Z,10.3
2022-10-04T06:27:31.671Z,10.3
2022-10-04T06:28:37.961Z,10.4
2022-10-04T06:29:44.079Z,10.4
2022-10-04T06:30:50.270Z,10.6
2022-10-04T06:31:56.476Z,10.7
2022-10-04T06:33:02.683Z,10.7
2022-10-04T06:34:08.888Z,10.7
2022-10-04T06:35:15.068Z,10.6
2022-10-04T06:36:21.274Z,10.7
2022-10-04T06:37:27.474Z,10.7
2022-10-04T06:38:33.679Z,10.8
2022-10-04T06:39:39.950Z,10.9
2022-10-04T06:40:46.094Z,11
2022-10-04T06:41:52.312Z,11.2
2022-10-04T06:42:58.506Z,11.2
2022-10-04T06:44:04.716Z,11.4
2022-10-04T06:45:10.885Z,11.4
2022-10-04T06:46:17.085Z,11.5
2022-10-04T06:47:22.298Z,11.4
2022-10-04T06:48:28.485Z,11.4
2022-10-04T06:49:34.701Z,11.6
2022-10-04T06:50:40.876Z,11.6
2022-10-04T06:51:47.120Z,11.6
2022-10-04T06:52:53.250Z,11.9
2022-10-04T06:53:59.459Z,12
2022-10-04T06:55:05.655Z,12.2
2022-10-04T06:56:11.867Z,12.5
2022-10-04T06:57:18.054Z,13.5
2022-10-04T06:58:24.489Z,14.8
2022-10-04T06:59:30.451Z,15.8
2022-10-04T07:00:36.650Z,16.3
2022-10-04T07:01:41.871Z,16.4
2022-10-04T07:02:47.957Z,16.4
2022-10-04T07:03:54.115Z,16.6
2022-10-04T07:05:00.259Z,16.1
2022-10-04T07:06:06.417Z,15.8
2022-10-04T07:07:12.588Z,15.4
2022-10-04T07:08:18.675Z,15
2022-10-04T07:09:24.816Z,14.5
2022-10-04T07:10:30.954Z,14.4
2022-10-04T07:11:37.252Z,14.1
2022-10-04T07:12:43.291Z,13.9
2022-10-04T07:13:49.389Z,13.6
2022-10-04T07:14:55.565Z,13.5
2022-10-04T07:16:00.711Z,13.6
2022-10-04T07:17:06.822Z,13.5
2022-10-04T07:18:13.001Z,13.3
2022-10-04T07:19:19.134Z,13.4
2022-10-04T07:20:25.246Z,13.5
2022-10-04T07:21:31.410Z,13.7
2022-10-04T07:22:37.574Z,13.6
2022-10-04T07:23:43.749Z,13.7
2022-10-04T07:24:49.831Z,13.7
2022-10-04T07:25:56.036Z,13.7
2022-10-04T07:27:02.126Z,13.9
2022-10-04T07:28:08.267Z,13.9
2022-10-04T07:29:14.437Z,13.8
2022-10-04T07:30:19.584Z,13.5
2022-10-04T07:31:25.734Z,13.2
2022-10-04T07:32:31.936Z,13.4
2022-10-04T07:33:38.038Z,13.5
2022-10-04T07:34:44.185Z,13.6
2022-10-04T07:35:50.398Z,13.6
2022-10-04T07:36:56.501Z,13.6
2022-10-04T07:38:02.648Z,13.4
2022-10-04T07:39:08.850Z,13.6
2022-10-04T07:40:14.984Z,13.6
2022-10-04T07:41:21.135Z,13.7
2022-10-04T07:42:27.308Z,13.9
2022-10-04T07:43:33.469Z,14
2022-10-04T07:44:38.593Z,14.1
2022-10-04T07:45:44.720Z,14.4
2022-10-04T07:46:50.904Z,14.4
2022-10-04T07:47:57.019Z,14.7
2022-10-04T07:49:03.221Z,14.8
2022-10-04T07:50:09.302Z,14.8
2022-10-04T07:51:15.441Z,14.4
2022-10-04T07:52:21.600Z,14.2
2022-10-04T07:53:27.720Z,14.4
2022-10-04T07:54:33.889Z,14.9
2022-10-04T07:55:40.022Z,15.1
2022-10-04T07:56:46.130Z,15.2
2022-10-04T07:57:52.291Z,15.5
2022-10-04T07:58:57.423Z,15.7
2022-10-04T08:00:03.564Z,16.2
2022-10-04T08:01:09.691Z,16.1
2022-10-04T08:02:15.821Z,16.3
2022-10-04T08:03:21.969Z,16.1
2022-10-04T08:04:28.070Z,15.8
2022-10-04T08:05:34.202Z,15.6
2022-10-04T08:06:40.334Z,15.6
2022-10-04T08:07:46.487Z,15.6
2022-10-04T08:08:52.576Z,15.3
2022-10-04T08:09:58.793Z,14.8
2022-10-04T08:11:04.827Z,14.6
2022-10-04T08:12:10.950Z,14.8
2022-10-04T08:13:17.081Z,15
2022-10-04T08:14:23.200Z,15
2022-10-04T08:15:29.317Z,15.1
2022-10-04T08:16:34.606Z,15.3
2022-10-04T08:17:40.715Z,15.4
2022-10-04T08:18:46.721Z,15.5
2022-10-04T08:19:52.856Z,15.5
2022-10-04T08:20:59.008Z,15.5
2022-10-04T08:22:05.133Z,15.6
2022-10-04T08:23:11.274Z,15.7
2022-10-04T08:24:17.389Z,15.7
2022-10-04T08:25:23.513Z,15.7
2022-10-04T08:26:29.651Z,15.6
2022-10-04T08:27:35.781Z,15.5
2022-10-04T08:28:41.917Z,15.2
2022-10-04T08:29:48.111Z,15
2022-10-04T08:30:53.290Z,15.1
2022-10-04T08:31:59.354Z,15.3
2022-10-04T08:33:05.500Z,15.2
2022-10-04T08:34:11.655Z,15
2022-10-04T08:35:17.765Z,15
2022-10-04T08:36:23.905Z,15.2
2022-10-04T08:37:30.055Z,15.4
2022-10-04T08:38:36.211Z,15.4
2022-10-04T08:39:42.363Z,15.6
2022-10-04T08:40:48.483Z,15.6
2022-10-04T08:41:54.609Z,15.6
2022-10-04T08:43:00.740Z,15.8
2022-10-04T08:44:06.880Z,15.9
2022-10-04T08:45:12.040Z,15.7
2022-10-04T08:46:18.185Z,15.7
2022-10-04T08:47:24.309Z,15.6
2022-10-04T08:48:30.453Z,15.5
2022-10-04T08:49:36.599Z,15.5
2022-10-04T08:50:42.768Z,15.4
2022-10-04T08:51:48.915Z,15.4
2022-10-04T08:52:55.084Z,15.6
2022-10-04T08:54:01.149Z,15.8
2022-10-04T08:55:07.308Z,15.9
2022-10-04T08:56:13.445Z,16.1
2022-10-04T08:57:19.566Z,16.1
2022-10-04T08:58:25.675Z,16.1
2022-10-04T08:59:31.848Z,16.2
2022-10-04T09:00:36.947Z,16.5
2022-10-04T09:01:43.077Z,16.7
2022-10-04T09:02:49.213Z,16.7
2022-10-04T09:03:55.334Z,16.9
2022-10-04T09:05:01.460Z,16.9
2022-10-04T09:06:07.584Z,16.6
2022-10-04T09:07:13.832Z,16.2
2022-10-04T09:08:19.911Z,16.3
2022-10-04T09:09:25.980Z,16.5
2022-10-04T09:10:32.125Z,16.4
2022-10-04T09:11:38.251Z,16.5
2022-10-04T09:12:44.409Z,16.5
2022-10-04T09:13:50.508Z,16.2
2022-10-04T09:14:56.604Z,16.2
2022-10-04T09:16:02.724Z,16.2
2022-10-04T09:17:08.878Z,16.5
2022-10-04T09:18:14.026Z,16.6
2022-10-04T09:19:20.136Z,16.7
2022-10-04T09:20:26.305Z,16.9
2022-10-04T09:21:32.402Z,16.8
2022-10-04T09:22:38.518Z,17.2
2022-10-04T09:23:44.655Z,17.4
2022-10-04T09:24:50.782Z,18.1
2022-10-04T09:25:56.995Z,17.5
2022-10-04T09:27:03.160Z,17.7
2022-10-04T09:28:09.137Z,18.4
2022-10-04T09:29:15.286Z,18.8
2022-10-04T09:30:21.398Z,19.1
2022-10-04T09:31:27.529Z,19.3
2022-10-04T09:32:33.597Z,19.7
2022-10-04T09:33:39.756Z,19.7
2022-10-04T09:34:45.802Z,19.7
2022-10-04T09:35:51.908Z,20
2022-10-04T09:36:58.018Z,20.1
2022-10-04T09:38:04.105Z,20.7
2022-10-04T09:39:10.210Z,20.7
2022-10-04T09:40:16.313Z,20.7
2022-10-04T09:41:22.439Z,20.6
2022-10-04T09:42:28.500Z,20.9
2022-10-04T09:43:34.587Z,21.5
2022-10-04T09:44:40.677Z,21.6
2022-10-04T09:45:46.843Z,21
2022-10-04T09:46:52.970Z,20.7
2022-10-04T09:47:58.938Z,20.2
2022-10-04T09:49:05.025Z,19.4
2022-10-04T09:50:11.118Z,19.8
2022-10-04T09:51:17.267Z,19.8
2022-10-04T09:52:23.312Z,18.9
2022-10-04T09:53:29.442Z,19.3
2022-10-04T09:54:35.513Z,19.4
2022-10-04T09:55:41.581Z,19.1
2022-10-04T09:56:47.786Z,19
2022-10-04T09:57:53.862Z,19
2022-10-04T09:58:59.949Z,19.2
2022-10-04T10:00:06.153Z,19
2022-10-04T10:01:12.333Z,18.8
2022-10-04T10:02:18.459Z,18.6
2022-10-04T10:03:24.649Z,18.8
2022-10-04T10:04:30.850Z,20.4
2022-10-04T10:05:36.936Z,21
2022-10-04T10:06:43.212Z,21.5
2022-10-04T10:07:49.299Z,21.5
2022-10-04T10:08:55.450Z,21
2022-10-04T10:10:01.622Z,20.7
2022-10-04T10:11:07.772Z,20.3
2022-10-04T10:12:13.978Z,20
2022-10-04T10:13:20.230Z,19.8
2022-10-04T10:14:25.477Z,19.4
2022-10-04T10:15:31.589Z,18.5
2022-10-04T10:16:37.777Z,18.4
2022-10-04T10:17:43.836Z,18.6
2022-10-04T10:18:49.904Z,18.4
2022-10-04T10:19:55.920Z,18.2
2022-10-04T10:21:02.060Z,17.8
2022-10-04T10:22:08.060Z,17.9
2022-10-04T10:23:14.196Z,18.5
2022-10-04T10:24:20.305Z,18.5
2022-10-04T10:25:26.351Z,18.8
2022-10-04T10:26:32.520Z,18.9
2022-10-04T10:27:38.536Z,18.7
2022-10-04T10:28:44.705Z,19.1
2022-10-04T10:29:50.726Z,19
2022-10-04T10:30:56.832Z,18.5
2022-10-04T10:32:02.874Z,17.9
2022-10-04T10:33:08.964Z,17.9
2022-10-04T10:34:15.057Z,17.7
2022-10-04T10:35:21.150Z,18.6
2022-10-04T10:36:27.256Z,18.7
2022-10-04T10:37:33.351Z,19.6
2022-10-04T10:38:39.456Z,20.4
2022-10-04T10:39:45.552Z,20.8
2022-10-04T10:40:51.683Z,20.8
2022-10-04T10:41:57.809Z,19.8
2022-10-04T10:43:03.037Z,19.4
2022-10-04T10:44:09.090Z,19.4
2022-10-04T10:45:15.200Z,19.9
2022-10-04T10:46:21.284Z,20.1
2022-10-04T10:47:27.386Z,20.1
2022-10-04T10:48:33.464Z,20.3
2022-10-04T10:49:39.561Z,20.7
2022-10-04T10:50:45.642Z,20.3
2022-10-04T10:51:51.736Z,19.9
2022-10-04T10:52:57.829Z,20.6
2022-10-04T10:54:03.921Z,21.6
2022-10-04T10:55:09.994Z,21.8
2022-10-04T10:56:16.089Z,22.1
2022-10-04T10:57:22.155Z,22.1
2022-10-04T10:58:28.242Z,21.6
2022-10-04T10:59:34.348Z,21.4
2022-10-04T11:00:40.422Z,21.5
2022-10-04T11:01:46.479Z,22
2022-10-04T11:02:52.555Z,22
2022-10-04T11:03:58.637Z,21.3
2022-10-04T11:05:04.706Z,20.5
2022-10-04T11:06:10.818Z,19.9
2022-10-04T11:07:16.927Z,19.8
2022-10-04T11:08:23.016Z,20.4
2022-10-04T11:09:29.034Z,21.2
2022-10-04T11:10:35.166Z,20.3
2022-10-04T11:11:41.319Z,20.1
2022-10-04T11:12:47.515Z,20.1
2022-10-04T11:13:53.656Z,20.5
2022-10-04T11:14:59.832Z,20.5
2022-10-04T11:16:05.947Z,20.4
2022-10-04T11:17:12.109Z,20.7
2022-10-04T11:18:18.287Z,21.4
2022-10-04T11:19:24.422Z,21.6
2022-10-04T11:20:30.577Z,21.9
2022-10-04T11:21:36.729Z,21.3
2022-10-04T11:22:42.880Z,21.1
2022-10-04T11:23:49.037Z,20.8
2022-10-04T11:24:55.304Z,20.5
2022-10-04T11:26:00.587Z,20.3
2022-10-04T11:27:06.627Z,20.4
2022-10-04T11:28:12.682Z,20.7
2022-10-04T11:29:18.744Z,20.9
2022-10-04T11:30:24.813Z,21
2022-10-04T11:31:30.890Z,20.2
2022-10-04T11:32:36.959Z,19.6
2022-10-04T11:33:43.030Z,19.3
2022-10-04T11:34:49.355Z,19.8
2022-10-04T11:35:55.161Z,20
2022-10-04T11:37:01.293Z,20
2022-10-04T11:38:07.308Z,19.9
2022-10-04T11:39:13.406Z,19.8
2022-10-04T11:40:19.451Z,19.8
2022-10-04T11:41:25.527Z,20
2022-10-04T11:42:31.600Z,20.1
2022-10-04T11:43:37.710Z,20.2
2022-10-04T11:44:43.759Z,20.4
2022-10-04T11:45:49.831Z,20.9
2022-10-04T11:46:55.904Z,20.9
2022-10-04T11:48:02.092Z,20.4
2022-10-04T11:49:08.144Z,20.2
2022-10-04T11:50:14.130Z,19.8
2022-10-04T11:51:20.219Z,19.9
2022-10-04T11:52:26.641Z,20
2022-10-04T11:53:32.448Z,20.4
2022-10-04T11:54:38.621Z,20.5
2022-10-04T11:55:44.773Z,20.8
2022-10-04T11:56:51.014Z,20.9
2022-10-04T11:57:57.150Z,21.2
2022-10-04T11:59:03.241Z,20.8
2022-10-04T12:00:09.443Z,20.9
2022-10-04T12:01:15.552Z,20.9
2022-10-04T12:02:21.836Z,20
2022-10-04T12:03:27.859Z,20.2
2022-10-04T12:04:34.018Z,19.6
2022-10-04T12:05:40.167Z,19.8
2022-10-04T12:06:46.332Z,20.1
2022-10-04T12:07:52.688Z,19.6
2022-10-04T12:08:57.822Z,19.4
2022-10-04T12:10:03.942Z,19.8
2022-10-04T12:11:09.993Z,20.1
2022-10-04T12:12:16.065Z,20.3
2022-10-04T12:13:22.123Z,19.8
2022-10-04T12:14:28.236Z,20
2022-10-04T12:15:34.282Z,20.2
2022-10-04T12:16:40.513Z,20.2
2022-10-04T12:17:46.480Z,20.5
2022-10-04T12:18:52.525Z,20.9
2022-10-04T12:19:58.599Z,21
2022-10-04T12:21:04.667Z,20.9
2022-10-04T12:22:10.751Z,20.8
2022-10-04T12:23:16.810Z,20.8
2022-10-04T12:24:22.916Z,20.9
2022-10-04T12:25:28.955Z,20.7
2022-10-04T12:26:35.045Z,20.6
2022-10-04T12:27:41.154Z,20
2022-10-04T12:28:47.175Z,19.6
2022-10-04T12:29:53.220Z,19.5
2022-10-04T12:30:59.454Z,19.7
2022-10-04T12:32:05.373Z,20.2
2022-10-04T12:33:11.449Z,20.5
2022-10-04T12:34:17.547Z,20.9
2022-10-04T12:35:23.642Z,21.1
2022-10-04T12:36:29.828Z,21.1
2022-10-04T12:37:36.032Z,20.7
2022-10-04T12:38:42.126Z,20
2022-10-04T12:39:48.262Z,20
2022-10-04T12:40:54.361Z,20.5
2022-10-04T12:42:00.514Z,20
2022-10-04T12:43:06.672Z,19.7
2022-10-04T12:44:12.816Z,20.2
2022-10-04T12:45:18.977Z,20.4
2022-10-04T12:46:25.134Z,20.5
2022-10-04T12:47:31.404Z,20.1
2022-10-04T12:48:37.472Z,20.3
2022-10-04T12:49:43.595Z,20.6
2022-10-04T12:50:49.903Z,20.1
2022-10-04T12:51:55.145Z,19.8
2022-10-04T12:53:01.244Z,20
2022-10-04T12:54:07.298Z,20.3
2022-10-04T12:55:13.352Z,20.6
2022-10-04T12:56:19.443Z,20.5
2022-10-04T12:57:25.528Z,20.7
2022-10-04T12:58:31.603Z,20.8
2022-10-04T12:59:37.701Z,20.7
2022-10-04T13:00:43.784Z,20.8
2022-10-04T13:01:49.845Z,20.9
2022-10-04T13:02:55.948Z,21.2
2022-10-04T13:04:02.037Z,21.4
2022-10-04T13:05:08.101Z,21.6
2022-10-04T13:06:14.175Z,21.7
2022-10-04T13:07:20.265Z,21.2
2022-10-04T13:08:26.345Z,21.2
2022-10-04T13:09:32.446Z,21.2
2022-10-04T13:10:38.505Z,20.7
2022-10-04T13:11:44.585Z,20.7
2022-10-04T13:12:50.665Z,20.5
2022-10-04T13:13:56.739Z,20.7
2022-10-04T13:15:02.818Z,20.9
2022-10-04T13:16:08.894Z,20.7
2022-10-04T13:17:14.969Z,20.5
2022-10-04T13:18:21.048Z,20.5
2022-10-04T13:19:27.194Z,20.5
2022-10-04T13:20:33.359Z,19.8
2022-10-04T13:21:39.668Z,20
2022-10-04T13:22:45.651Z,20.2
2022-10-04T13:23:51.842Z,20.2
2022-10-04T13:24:57.953Z,20.4
2022-10-04T13:26:04.104Z,20.3
2022-10-04T13:27:10.259Z,20.3
2022-10-04T13:28:16.414Z,20.3
2022-10-04T13:29:22.602Z,20.5
2022-10-04T13:30:28.742Z,20.4
2022-10-04T13:31:35.051Z,20.2
2022-10-04T13:32:41.058Z,20.1
2022-10-04T13:33:47.420Z,20.1
2022-10-04T13:34:52.607Z,20
2022-10-04T13:35:58.668Z,20
2022-10-04T13:37:04.810Z,19.9
2022-10-04T13:38:10.818Z,19.8
2022-10-04T13:39:16.982Z,19.6
2022-10-04T13:40:22.998Z,19.3
2022-10-04T13:41:29.058Z,19.3
2022-10-04T13:42:35.146Z,19.3
2022-10-04T13:43:41.276Z,19.4
2022-10-04T13:44:47.344Z,19.4
2022-10-04T13:45:53.410Z,19.4
2022-10-04T13:46:59.532Z,19.3
2022-10-04T13:48:05.605Z,19.1
2022-10-04T13:49:11.676Z,19.2
2022-10-04T13:50:17.753Z,19.3
2022-10-04T13:51:23.865Z,19.3
2022-10-04T13:52:29.979Z,19.4
2022-10-04T13:53:36.044Z,19.4
2022-10-04T13:54:42.133Z,19.3
2022-10-04T13:55:48.257Z,19.1
2022-10-04T13:56:54.365Z,19
2022-10-04T13:58:00.438Z,19
2022-10-04T13:59:06.559Z,19.1
2022-10-04T14:00:12.676Z,19.2
2022-10-04T14:01:18.825Z,19.2
2022-10-04T14:02:24.949Z,19.3
2022-10-04T14:03:30.182Z,19.2
2022-10-04T14:04:36.213Z,19.3
2022-10-04T14:05:42.369Z,19.3
2022-10-04T14:06:48.414Z,19.3
2022-10-04T14:07:54.518Z,19.2
2022-10-04T14:09:00.694Z,19.2
2022-10-04T14:10:06.728Z,19.2
2022-10-04T14:11:12.844Z,19.1
2022-10-04T14:12:18.962Z,19.1
2022-10-04T14:13:25.112Z,19.1
2022-10-04T14:14:31.203Z,19.1
2022-10-04T14:15:37.276Z,19.1
2022-10-04T14:16:43.421Z,19
2022-10-04T14:17:49.570Z,19
2022-10-04T14:18:55.586Z,19
2022-10-04T14:20:01.759Z,19
2022-10-04T14:21:07.815Z,18.9
2022-10-04T14:22:13.992Z,18.9
2022-10-04T14:23:20.082Z,19
2022-10-04T14:24:26.167Z,19
2022-10-04T14:25:32.313Z,18.9
2022-10-04T14:26:38.520Z,18.9
2022-10-04T14:27:44.643Z,18.8
2022-10-04T14:28:50.618Z,18.7
2022-10-04T14:29:56.727Z,18.7
2022-10-04T14:31:02.967Z,18.7
2022-10-04T14:32:08.187Z,18.8
2022-10-04T14:33:13.472Z,18.7
2022-10-04T14:34:18.629Z,18.8
2022-10-04T14:35:24.743Z,18.9
2022-10-04T14:36:30.863Z,19
2022-10-04T14:37:37.039Z,19
2022-10-04T14:38:43.095Z,19
2022-10-04T14:39:49.242Z,18.9
2022-10-04T14:40:55.340Z,19
2022-10-04T14:42:01.461Z,19.1
2022-10-04T14:43:07.589Z,19.1
2022-10-04T14:44:13.743Z,19.1
2022-10-04T14:45:19.863Z,19.1
2022-10-04T14:46:25.954Z,19
2022-10-04T14:47:32.113Z,19
2022-10-04T14:48:38.181Z,19
2022-10-04T14:49:44.346Z,19.1
2022-10-04T14:50:50.436Z,19.1
2022-10-04T14:51:56.593Z,19.2
2022-10-04T14:53:02.665Z,19.2
2022-10-04T14:54:08.787Z,19.2